createdAt,value
2019-05-15T00:02:21.365Z,9.10
2019-05-15T00:04:49.337Z,9.40
2019-05-15T00:07:18.293Z,9.00
2019-05-15T00:09:48.973Z,9.10
2019-05-15T00:12:28.679Z,9.50
2019-05-15T00:14:58.151Z,9.40
2019-05-15T00:17:28.212Z,9.20
2019-05-15T00:19:58.099Z,9.20
2019-05-15T00:22:25.774Z,8.90
2019-05-15T00:24:53.663Z,8.60
2019-05-15T00:27:21.579Z,8.50
2019-05-15T00:29:50.521Z,8.60
2019-05-15T00:32:18.702Z,8.70
2019-05-15T00:34:54.183Z,8.40
2019-05-15T00:37:22.008Z,8.20
2019-05-15T00:39:49.881Z,8.60
2019-05-15T00:42:18.962Z,8.50
2019-05-15T00:44:49.151Z,8.30
2019-05-15T00:47:18.113Z,8.70
2019-05-15T00:49:48.373Z,8.60
2019-05-15T00:52:17.919Z,8.70
2019-05-15T00:54:48.246Z,8.60
2019-05-15T00:57:15.465Z,8.50
2019-05-15T00:59:43.276Z,8.40
2019-05-15T01:02:11.186Z,8.90
2019-05-15T01:04:39.081Z,8.60
2019-05-15T01:07:08.340Z,8.60
2019-05-15T01:09:38.534Z,8.50
2019-05-15T01:12:06.244Z,8.70
2019-05-15T01:14:34.126Z,8.60
2019-05-15T01:17:01.971Z,8.70
2019-05-15T01:19:29.827Z,8.70
2019-05-15T01:21:58.719Z,8.60
2019-05-15T01:24:28.324Z,8.40
2019-05-15T01:26:58.389Z,8.40
2019-05-15T01:29:38.367Z,8.50
2019-05-15T01:31:55.769Z,8.40
2019-05-15T01:34:23.590Z,8.40
2019-05-15T01:36:51.455Z,8.30
2019-05-15T01:39:19.301Z,8.30
2019-05-15T01:41:49.335Z,8.40
2019-05-15T01:44:17.958Z,8.40
2019-05-15T01:46:48.126Z,8.40
2019-05-15T01:49:15.589Z,8.10
2019-05-15T01:51:43.419Z,8.50
2019-05-15T01:54:11.343Z,8.50
2019-05-15T01:56:39.217Z,8.40
2019-05-15T01:59:08.678Z,8.80
2019-05-15T02:01:39.259Z,8.50
2019-05-15T02:04:08.369Z,8.50
2019-05-15T02:06:38.898Z,8.30
2019-05-15T02:09:08.308Z,8.20
2019-05-15T02:11:38.242Z,8.10
2019-05-15T02:14:08.279Z,8.50
2019-05-15T02:16:36.077Z,8.40
2019-05-15T02:19:03.942Z,8.40
2019-05-15T02:21:31.815Z,8.10
2019-05-15T02:23:59.706Z,8.30
2019-05-15T02:26:28.208Z,7.90
2019-05-15T02:28:56.412Z,7.90
2019-05-15T02:31:24.269Z,8.10
2019-05-15T02:33:52.628Z,7.70
2019-05-15T02:36:21.005Z,8.00
2019-05-15T02:38:48.969Z,8.00
2019-05-15T02:41:19.565Z,7.60
2019-05-15T02:43:49.733Z,7.90
2019-05-15T02:46:19.384Z,7.70
2019-05-15T02:48:48.852Z,7.60
2019-05-15T02:51:19.248Z,7.50
2019-05-15T02:53:49.357Z,7.90
2019-05-15T02:56:15.854Z,7.70
2019-05-15T02:58:43.652Z,7.90
2019-05-15T03:01:11.562Z,7.60
2019-05-15T03:03:39.481Z,7.70
2019-05-15T03:06:10.094Z,7.70
2019-05-15T03:08:39.895Z,7.50
2019-05-15T03:11:09.856Z,7.60
2019-05-15T03:13:39.165Z,7.50
2019-05-15T03:16:10.087Z,7.50
2019-05-15T03:18:39.720Z,8.00
2019-05-15T03:21:09.743Z,7.50
2019-05-15T03:23:40.025Z,7.10
2019-05-15T03:26:08.848Z,7.10
2019-05-15T03:28:39.185Z,7.20
2019-05-15T03:31:26.279Z,7.30
2019-05-15T03:33:38.794Z,7.50
2019-05-15T03:36:05.703Z,7.10
2019-05-15T03:38:33.627Z,7.10
2019-05-15T03:41:01.490Z,7.70
2019-05-15T03:43:29.467Z,7.20
2019-05-15T03:46:01.154Z,7.10
2019-05-15T03:48:28.800Z,7.20
2019-05-15T03:50:59.684Z,7.10
2019-05-15T03:53:29.582Z,7.20
2019-05-15T03:55:58.874Z,7.20
2019-05-15T03:58:28.782Z,7.30
2019-05-15T04:00:59.878Z,7.30
2019-05-15T04:03:29.633Z,7.20
2019-05-15T04:05:56.300Z,7.20
2019-05-15T04:08:24.371Z,7.10
2019-05-15T04:10:52.194Z,6.70
2019-05-15T04:13:20.107Z,6.60
2019-05-15T04:15:50.311Z,7.30
2019-05-15T04:18:39.583Z,7.10
2019-05-15T04:21:09.168Z,7.20
2019-05-15T04:23:39.147Z,7.20
2019-05-15T04:26:09.165Z,7.00
2019-05-15T04:28:41.571Z,6.90
2019-05-15T04:31:09.585Z,7.00
2019-05-15T04:33:39.952Z,7.20
2019-05-15T04:36:09.734Z,7.10
2019-05-15T04:38:39.266Z,7.40
2019-05-15T04:41:09.512Z,7.30
2019-05-15T04:43:41.407Z,7.50
2019-05-15T04:46:09.693Z,7.10
2019-05-15T04:48:43.364Z,7.20
2019-05-15T04:51:11.269Z,7.60
2019-05-15T04:53:39.781Z,7.40
2019-05-15T04:56:09.466Z,7.60
2019-05-15T04:58:39.446Z,8.00
2019-05-15T05:01:09.315Z,7.90
2019-05-15T05:03:39.466Z,8.10
2019-05-15T05:06:09.849Z,7.60
2019-05-15T05:08:39.574Z,7.80
2019-05-15T05:11:09.457Z,7.70
2019-05-15T05:13:38.960Z,8.10
2019-05-15T05:16:09.225Z,8.60
2019-05-15T05:18:40.441Z,7.80
2019-05-15T05:21:07.742Z,8.50
2019-05-15T05:23:37.610Z,8.40
2019-05-15T05:26:08.869Z,8.50
2019-05-15T05:28:37.791Z,8.50
2019-05-15T05:31:05.184Z,8.50
2019-05-15T05:33:33.054Z,8.80
2019-05-15T05:36:00.916Z,8.90
2019-05-15T05:38:28.794Z,9.30
2019-05-15T05:40:58.661Z,9.40
2019-05-15T05:43:26.553Z,9.00
2019-05-15T05:45:54.404Z,8.70
2019-05-15T05:48:22.321Z,8.90
2019-05-15T05:50:50.412Z,9.40
2019-05-15T05:53:20.834Z,9.30
2019-05-15T05:55:49.192Z,9.60
2019-05-15T05:58:19.668Z,9.60
2019-05-15T06:00:49.130Z,10.00
2019-05-15T06:03:19.532Z,9.30
2019-05-15T06:05:49.585Z,9.10
2019-05-15T06:08:19.616Z,10.10
2019-05-15T06:10:49.612Z,9.90
2019-05-15T06:13:18.519Z,9.70
2019-05-15T06:15:48.738Z,9.70
2019-05-15T06:18:19.156Z,9.80
2019-05-15T06:20:49.102Z,10.30
2019-05-15T06:23:22.267Z,9.80
2019-05-15T06:25:48.418Z,10.30
2019-05-15T06:28:15.782Z,10.50
2019-05-15T06:30:43.752Z,9.90
2019-05-15T06:33:13.542Z,10.20
2019-05-15T06:35:43.098Z,10.70
2019-05-15T06:38:11.024Z,10.10
2019-05-15T06:40:39.521Z,10.40
2019-05-15T06:43:08.776Z,11.10
2019-05-15T06:45:38.049Z,10.60
2019-05-15T06:48:09.425Z,10.70
2019-05-15T06:50:38.744Z,10.20
2019-05-15T06:53:10.448Z,10.80
2019-05-15T06:55:38.897Z,10.50
2019-05-15T06:58:09.014Z,10.60
2019-05-15T07:00:39.094Z,10.80
2019-05-15T07:03:18.123Z,11.30
2019-05-15T07:05:38.545Z,11.00
2019-05-15T07:08:08.971Z,11.10
2019-05-15T07:10:37.809Z,11.50
2019-05-15T07:13:05.872Z,11.20
2019-05-15T07:15:33.693Z,11.30
2019-05-15T07:18:01.583Z,11.80
2019-05-15T07:20:29.576Z,11.20
2019-05-15T07:22:58.599Z,11.10
2019-05-15T07:25:29.194Z,10.90
2019-05-15T07:27:58.053Z,10.80
2019-05-15T07:30:28.718Z,10.90
2019-05-15T07:32:58.530Z,11.80
2019-05-15T07:35:28.665Z,11.30
2019-05-15T07:37:58.468Z,11.60
2019-05-15T07:40:28.915Z,11.90
2019-05-15T07:42:58.676Z,12.10
2019-05-15T07:45:28.107Z,11.80
2019-05-15T07:47:58.345Z,11.90
2019-05-15T07:50:25.593Z,11.30
2019-05-15T07:52:53.632Z,11.20
2019-05-15T07:55:21.552Z,11.90
2019-05-15T07:57:52.752Z,12.20
2019-05-15T08:00:21.528Z,12.10
2019-05-15T08:02:49.487Z,12.40
2019-05-15T08:05:18.395Z,12.40
2019-05-15T08:07:48.966Z,11.90
2019-05-15T08:10:18.324Z,12.70
2019-05-15T08:12:49.250Z,12.70
2019-05-15T08:15:18.263Z,11.70
2019-05-15T08:18:00.340Z,12.50
2019-05-15T08:20:18.388Z,12.30
2019-05-15T08:22:48.699Z,12.60
2019-05-15T08:25:31.064Z,13.40
2019-05-15T08:27:48.495Z,12.70
2019-05-15T08:30:18.405Z,12.70
2019-05-15T08:32:49.214Z,12.90
2019-05-15T08:35:18.941Z,12.10
2019-05-15T08:37:48.879Z,13.10
2019-05-15T08:40:17.908Z,12.10
2019-05-15T08:42:45.908Z,13.00
2019-05-15T08:45:14.285Z,12.50
2019-05-15T08:47:42.144Z,12.40
2019-05-15T08:50:11.149Z,12.90
2019-05-15T08:52:39.506Z,14.30
2019-05-15T08:55:08.606Z,12.90
2019-05-15T08:57:38.337Z,12.60
2019-05-15T09:00:09.667Z,14.30
2019-05-15T09:02:38.279Z,13.20
2019-05-15T09:05:09.469Z,13.10
2019-05-15T09:07:38.339Z,13.80
2019-05-15T09:10:09.015Z,13.60
2019-05-15T09:12:38.788Z,13.90
2019-05-15T09:15:08.415Z,13.20
2019-05-15T09:17:39.579Z,13.10
2019-05-15T09:20:08.121Z,13.80
2019-05-15T09:22:38.211Z,14.10
2019-05-15T09:25:08.981Z,13.50
2019-05-15T09:27:38.251Z,13.70
2019-05-15T09:30:08.691Z,13.50
2019-05-15T09:32:38.961Z,12.70
2019-05-15T09:35:08.454Z,14.70
2019-05-15T09:37:38.565Z,14.50
2019-05-15T09:40:08.822Z,13.90
2019-05-15T09:42:38.674Z,14.00
2019-05-15T09:45:08.872Z,14.10
2019-05-15T09:47:39.488Z,13.90
2019-05-15T09:50:08.637Z,14.60
2019-05-15T09:52:38.780Z,14.10
2019-05-15T09:55:08.549Z,13.80
2019-05-15T09:57:38.796Z,14.20
2019-05-15T10:00:09.100Z,13.90
2019-05-15T10:02:39.435Z,14.90
2019-05-15T10:05:10.927Z,14.70
2019-05-15T10:07:40.129Z,14.90
2019-05-15T10:10:08.721Z,14.70
2019-05-15T10:12:38.696Z,14.40
2019-05-15T10:15:11.333Z,14.70
2019-05-15T10:17:39.767Z,13.90
2019-05-15T10:20:09.325Z,14.30
2019-05-15T10:22:37.468Z,14.50
2019-05-15T10:25:08.143Z,14.10
2019-05-15T10:27:35.450Z,14.40
2019-05-15T10:30:03.959Z,15.10
2019-05-15T10:32:31.956Z,14.10
2019-05-15T10:34:59.816Z,14.40
2019-05-15T10:37:28.448Z,14.50
2019-05-15T10:39:58.458Z,14.20
2019-05-15T10:42:28.944Z,14.30
2019-05-15T10:44:58.731Z,13.90
2019-05-15T10:47:28.707Z,14.50
2019-05-15T10:49:56.104Z,15.90
2019-05-15T10:52:24.109Z,14.90
2019-05-15T10:54:52.003Z,16.40
2019-05-15T10:57:19.933Z,15.80
2019-05-15T10:59:47.931Z,14.80
2019-05-15T11:02:15.820Z,15.50
2019-05-15T11:04:43.753Z,15.00
2019-05-15T11:07:11.694Z,14.90
2019-05-15T11:09:40.580Z,15.70
2019-05-15T11:12:08.825Z,15.30
2019-05-15T11:14:37.974Z,16.60
2019-05-15T11:17:06.021Z,15.70
2019-05-15T11:19:36.345Z,16.70
2019-05-15T11:22:03.770Z,16.50
2019-05-15T11:24:32.405Z,15.80
2019-05-15T11:27:00.546Z,16.60
2019-05-15T11:29:28.513Z,16.00
2019-05-15T11:31:58.063Z,15.70
2019-05-15T11:34:28.791Z,16.50
2019-05-15T11:36:55.879Z,15.10
2019-05-15T11:39:23.733Z,15.70
2019-05-15T11:41:51.599Z,16.80
2019-05-15T11:44:19.525Z,16.40
2019-05-15T11:46:49.663Z,17.90
2019-05-15T11:49:18.215Z,16.70
2019-05-15T11:51:49.018Z,17.30
2019-05-15T11:54:18.898Z,17.30
2019-05-15T11:56:48.719Z,16.10
2019-05-15T11:59:18.297Z,16.30
2019-05-15T12:01:46.018Z,17.00
2019-05-15T12:04:26.732Z,17.10
2019-05-15T12:06:56.974Z,16.30
2019-05-15T12:09:14.515Z,16.30
2019-05-15T12:11:42.389Z,17.00
2019-05-15T12:14:10.275Z,16.50
2019-05-15T12:16:39.931Z,16.60
2019-05-15T12:19:13.883Z,16.50
2019-05-15T12:21:39.634Z,16.90
2019-05-15T12:24:09.011Z,16.90
2019-05-15T12:26:39.403Z,16.10
2019-05-15T12:29:09.816Z,16.60
2019-05-15T12:31:38.875Z,16.50
2019-05-15T12:34:09.082Z,17.20
2019-05-15T12:36:57.812Z,16.60
2019-05-15T12:39:10.579Z,16.50
2019-05-15T13:01:38.729Z,18.20
2019-05-15T13:04:08.288Z,17.80
2019-05-15T13:06:47.884Z,17.10
2019-05-15T13:09:08.680Z,16.90
2019-05-15T13:11:37.804Z,17.50
2019-05-15T13:14:07.976Z,17.60
2019-05-15T13:16:35.727Z,17.60
2019-05-15T13:19:03.790Z,17.20
2019-05-15T13:21:31.624Z,17.20
2019-05-15T13:23:59.642Z,18.10
2019-05-15T13:26:27.568Z,17.90
2019-05-15T13:28:58.104Z,18.10
2019-05-15T13:31:25.246Z,17.80
2019-05-15T13:33:53.120Z,19.40
2019-05-15T13:36:21.090Z,19.40
2019-05-15T13:38:49.046Z,20.80
2019-05-15T13:41:18.981Z,21.10
2019-05-15T13:43:49.234Z,18.80
2019-05-15T13:46:20.729Z,17.70
2019-05-15T13:48:49.049Z,18.90
2019-05-15T13:51:18.227Z,19.00
2019-05-15T13:53:48.872Z,19.40
2019-05-15T13:56:18.107Z,18.90
2019-05-15T13:58:47.934Z,17.90
2019-05-15T14:01:19.528Z,18.70
2019-05-15T14:03:48.272Z,18.30
2019-05-15T14:06:16.495Z,18.80
2019-05-15T14:08:44.377Z,18.80
2019-05-15T14:11:12.364Z,19.20
2019-05-15T14:13:40.275Z,18.10
2019-05-15T14:16:09.613Z,18.50
2019-05-15T14:18:39.048Z,19.40
2019-05-15T14:21:08.915Z,19.60
2019-05-15T14:23:38.413Z,18.30
2019-05-15T14:26:18.368Z,21.10
2019-05-15T14:28:38.798Z,18.90
2019-05-15T14:31:06.083Z,20.90
2019-05-15T14:33:33.985Z,21.00
2019-05-15T14:36:01.916Z,19.70
2019-05-15T14:38:29.849Z,20.60
2019-05-15T14:40:59.064Z,19.80
2019-05-15T14:43:29.156Z,19.00
2019-05-15T14:45:58.695Z,17.90
2019-05-15T14:48:28.103Z,18.50
2019-05-15T14:50:58.303Z,18.30
2019-05-15T14:53:29.187Z,18.10
2019-05-15T14:55:56.092Z,17.30
2019-05-15T14:58:25.867Z,17.60
2019-05-15T15:00:54.094Z,17.60
2019-05-15T15:03:22.152Z,17.30
2019-05-15T15:05:52.539Z,17.50
2019-05-15T15:08:24.864Z,17.50
2019-05-15T15:10:50.623Z,17.30
2019-05-15T15:13:18.629Z,17.40
2019-05-15T15:15:48.513Z,18.30
2019-05-15T15:18:18.526Z,17.70
2019-05-15T15:20:48.451Z,17.20
2019-05-15T15:23:16.574Z,19.70
2019-05-15T15:25:44.631Z,18.30
2019-05-15T15:28:12.597Z,17.80
2019-05-15T15:30:40.963Z,17.40
2019-05-15T15:33:08.916Z,17.50
2019-05-15T15:35:38.278Z,17.60
2019-05-15T15:38:12.119Z,18.20
2019-05-15T15:40:38.832Z,17.70
2019-05-15T15:43:09.019Z,17.80
2019-05-15T15:45:38.885Z,17.20
2019-05-15T15:48:08.420Z,17.60
2019-05-15T15:50:38.425Z,17.40
2019-05-15T15:53:08.546Z,18.60
2019-05-15T15:55:38.633Z,17.10
2019-05-15T15:58:08.511Z,16.90
2019-05-15T16:00:38.180Z,16.90
2019-05-15T16:03:08.208Z,16.80
2019-05-15T16:05:38.199Z,16.80
2019-05-15T16:08:05.584Z,17.10
2019-05-15T16:10:33.529Z,17.50
2019-05-15T16:13:01.644Z,17.70
2019-05-15T16:15:29.541Z,17.20
2019-05-15T16:17:59.423Z,16.80
2019-05-15T16:20:28.785Z,17.30
2019-05-15T16:22:58.995Z,17.00
2019-05-15T16:25:28.691Z,16.60
2019-05-15T16:27:57.790Z,16.30
2019-05-15T16:30:28.050Z,16.10
2019-05-15T16:32:58.294Z,16.00
2019-05-15T16:35:25.583Z,16.20
2019-05-15T16:37:53.679Z,16.40
2019-05-15T16:40:21.756Z,16.50
2019-05-15T16:42:49.813Z,16.40
2019-05-15T16:45:17.864Z,16.10
2019-05-15T16:47:48.093Z,16.40
2019-05-15T16:50:18.104Z,16.80
2019-05-15T16:52:46.026Z,16.10
2019-05-15T16:55:14.072Z,16.50
2019-05-15T16:57:42.007Z,16.00
2019-05-15T17:00:10.631Z,16.10
2019-05-15T17:02:39.209Z,15.90
2019-05-15T17:05:08.017Z,16.30
2019-05-15T17:07:38.468Z,15.70
2019-05-15T17:10:08.362Z,15.50
2019-05-15T17:12:38.751Z,16.10
2019-05-15T17:15:08.521Z,15.60
2019-05-15T17:17:38.769Z,15.30
2019-05-15T17:20:10.023Z,15.70
2019-05-15T17:22:38.295Z,15.40
2019-05-15T17:25:09.191Z,16.10
2019-05-15T17:27:36.961Z,15.80
2019-05-15T17:30:05.813Z,15.30
2019-05-15T17:32:33.856Z,15.70
2019-05-15T17:35:03.383Z,15.40
2019-05-15T17:37:31.872Z,15.40
2019-05-15T17:40:01.038Z,15.40
2019-05-15T17:42:29.311Z,15.40
2019-05-15T17:44:57.926Z,14.40
2019-05-15T17:47:28.461Z,14.80
2019-05-15T17:50:01.744Z,14.50
2019-05-15T17:52:30.642Z,14.40
2019-05-15T17:54:59.416Z,14.30
2019-05-15T17:57:28.631Z,14.20
2019-05-15T17:59:59.041Z,14.20
2019-05-15T18:02:28.630Z,14.40
2019-05-15T18:04:58.753Z,14.60
2019-05-15T18:07:28.169Z,15.10
2019-05-15T18:09:58.930Z,14.50
2019-05-15T18:12:28.660Z,14.40
2019-05-15T18:14:58.306Z,14.40
2019-05-15T18:17:26.301Z,14.40
2019-05-15T18:19:54.394Z,14.40
2019-05-15T18:22:22.475Z,14.10
2019-05-15T18:24:52.218Z,14.40
2019-05-15T18:27:21.417Z,14.20
2019-05-15T18:29:49.413Z,14.10
2019-05-15T18:32:18.919Z,13.90
2019-05-15T18:34:48.817Z,14.50
2019-05-15T18:37:19.142Z,14.30
2019-05-15T18:39:49.388Z,14.50
2019-05-15T18:42:18.556Z,14.10
2019-05-15T18:44:50.535Z,13.70
2019-05-15T18:47:20.747Z,13.60
2019-05-15T18:50:03.773Z,13.80
2019-05-15T18:52:20.006Z,13.60
2019-05-15T18:54:48.762Z,13.70
2019-05-15T18:57:18.619Z,14.20
2019-05-15T18:59:48.689Z,14.10
2019-05-15T19:02:19.059Z,14.00
2019-05-15T19:04:48.894Z,13.90
2019-05-15T19:07:18.118Z,14.00
2019-05-15T19:09:48.065Z,14.20
2019-05-15T19:12:17.902Z,13.70
2019-05-15T19:14:49.374Z,13.50
2019-05-15T19:17:18.786Z,13.70
2019-05-15T19:19:48.195Z,13.80
2019-05-15T19:22:19.105Z,13.60
2019-05-15T19:24:49.000Z,13.60
2019-05-15T19:27:18.760Z,14.00
2019-05-15T19:29:48.345Z,13.70
2019-05-15T19:32:17.724Z,13.60
2019-05-15T19:34:48.195Z,13.40
2019-05-15T19:37:18.318Z,13.50
2019-05-15T19:39:47.982Z,13.90
2019-05-15T19:42:18.143Z,13.40
2019-05-15T19:44:48.502Z,14.00
2019-05-15T19:47:18.573Z,14.00
2019-05-15T19:49:48.395Z,13.50
2019-05-15T19:52:17.884Z,13.60
2019-05-15T19:54:48.363Z,14.10
2019-05-15T19:57:19.734Z,13.80
2019-05-15T19:59:48.816Z,13.60
2019-05-15T20:02:18.018Z,13.60
2019-05-15T20:04:46.182Z,13.60
2019-05-15T20:07:15.281Z,13.40
2019-05-15T20:09:43.608Z,13.80
2019-05-15T20:12:12.795Z,13.80
2019-05-15T20:14:41.158Z,13.80
2019-05-15T20:17:09.564Z,13.70
2019-05-15T20:19:38.432Z,13.60
2019-05-15T20:22:08.060Z,13.50
2019-05-15T20:24:38.141Z,13.80
2019-05-15T20:27:08.602Z,13.70
2019-05-15T20:29:38.460Z,14.10
2019-05-15T20:32:07.443Z,13.90
2019-05-15T20:34:37.956Z,14.30
2019-05-15T20:37:06.080Z,13.70
2019-05-15T20:39:34.386Z,13.70
2019-05-15T20:42:02.458Z,13.60
2019-05-15T20:44:31.065Z,14.00
2019-05-15T20:46:59.195Z,13.90
2019-05-15T20:49:28.676Z,13.70
2019-05-15T20:51:58.255Z,13.80
2019-05-15T20:54:28.349Z,13.80
2019-05-15T20:56:58.295Z,14.30
2019-05-15T20:59:26.729Z,13.70
2019-05-15T21:01:55.546Z,13.80
2019-05-15T21:04:24.006Z,13.70
2019-05-15T21:06:56.843Z,13.60
2019-05-15T21:09:28.464Z,13.20
2019-05-15T21:11:55.934Z,13.80
2019-05-15T21:14:25.976Z,13.20
2019-05-15T21:16:54.037Z,13.80
2019-05-15T21:19:23.122Z,13.70
2019-05-15T21:21:51.182Z,14.10
2019-05-15T21:24:19.166Z,13.40
2019-05-15T21:26:48.907Z,13.70
2019-05-15T21:29:18.490Z,13.40
2019-05-15T21:31:49.108Z,13.20
2019-05-15T21:34:20.020Z,13.30
2019-05-15T21:36:48.342Z,13.10
2019-05-15T21:39:16.572Z,13.10
2019-05-15T21:41:44.704Z,13.60
2019-05-15T21:44:15.392Z,13.40
2019-05-15T21:46:43.373Z,13.60
2019-05-15T21:49:11.342Z,13.40
2019-05-15T21:51:42.502Z,13.40
2019-05-15T21:54:10.546Z,13.30
2019-05-15T21:56:38.782Z,13.30
2019-05-15T21:59:08.205Z,13.50
2019-05-15T22:01:39.477Z,13.60
2019-05-15T22:04:06.479Z,13.10
2019-05-15T22:06:34.680Z,13.30
2019-05-15T22:09:04.638Z,13.00
2019-05-15T22:11:32.835Z,13.10
2019-05-15T22:14:00.811Z,13.30
2019-05-15T22:16:29.006Z,12.90
2019-05-15T22:18:58.241Z,12.60
2019-05-15T22:21:26.597Z,12.90
2019-05-15T22:23:54.673Z,12.70
2019-05-15T22:26:22.601Z,12.90
2019-05-15T22:28:50.563Z,13.00
2019-05-15T22:31:18.472Z,13.40
2019-05-15T22:33:47.954Z,12.60
2019-05-15T22:36:16.102Z,12.80
2019-05-15T22:38:49.964Z,13.00
2019-05-15T22:41:15.648Z,13.00
2019-05-15T22:43:43.526Z,13.40
2019-05-15T22:46:11.503Z,13.10
2019-05-15T22:48:39.418Z,13.10
2019-05-15T22:51:07.286Z,13.10
2019-05-15T22:53:35.160Z,13.40
2019-05-15T22:56:03.498Z,13.00
2019-05-15T22:58:31.407Z,13.20
2019-05-15T23:00:59.870Z,12.80
2019-05-15T23:03:28.944Z,13.50
2019-05-15T23:05:58.166Z,12.80
2019-05-15T23:08:28.829Z,12.90
2019-05-15T23:10:58.695Z,12.80
2019-05-15T23:13:28.555Z,12.70
2019-05-15T23:15:58.412Z,12.90
2019-05-15T23:18:26.678Z,13.10
2019-05-15T23:20:54.564Z,12.70
2019-05-15T23:23:22.505Z,12.80
2019-05-15T23:25:50.431Z,13.00
2019-05-15T23:28:18.319Z,13.00
2019-05-15T23:30:48.403Z,13.20
2019-05-15T23:33:16.161Z,12.60
2019-05-15T23:35:44.078Z,12.60
2019-05-15T23:38:13.100Z,13.10
2019-05-15T23:40:41.126Z,12.70
2019-05-15T23:43:09.162Z,13.40
2019-05-15T23:45:43.316Z,13.10
2019-05-15T23:48:11.293Z,12.60
2019-05-15T23:50:39.192Z,12.90
2019-05-15T23:53:08.721Z,12.90
2019-05-15T23:55:36.625Z,13.00
2019-05-15T23:58:04.512Z,13.00
